createdAt,value
2022-08-25T00:01:34.039Z,3.07
2022-08-25T00:04:37.099Z,3.20
2022-08-25T00:07:40.148Z,2.87
2022-08-25T00:10:43.160Z,2.97
2022-08-25T00:14:02.027Z,2.97
2022-08-25T00:17:06.166Z,2.93
2022-08-25T00:20:10.836Z,3.10
2022-08-25T00:23:14.100Z,2.90
2022-08-25T00:26:18.343Z,3.13
2022-08-25T00:29:23.619Z,3.20
2022-08-25T00:32:27.054Z,3.30
2022-08-25T00:35:30.232Z,3.50
2022-08-25T00:38:33.342Z,3.00
2022-08-25T00:41:37.362Z,3.13
2022-08-25T00:44:43.796Z,2.90
2022-08-25T00:47:46.985Z,3.40
2022-08-25T00:50:50.118Z,2.90
2022-08-25T00:53:54.073Z,2.97
2022-08-25T00:56:59.162Z,3.33
2022-08-25T01:00:10.624Z,3.47
2022-08-25T01:03:14.211Z,3.40
2022-08-25T01:06:17.277Z,3.40
2022-08-25T01:09:21.166Z,3.50
2022-08-25T01:12:24.250Z,3.80
2022-08-25T01:15:28.965Z,3.43
2022-08-25T01:18:44.181Z,3.63
2022-08-25T01:21:51.538Z,3.20
2022-08-25T01:25:00.462Z,3.33
2022-08-25T01:28:04.046Z,3.50
2022-08-25T01:31:23.685Z,3.37
2022-08-25T01:34:29.795Z,3.43
2022-08-25T01:37:35.302Z,3.47
2022-08-25T01:40:40.312Z,3.57
2022-08-25T01:43:43.300Z,3.30
2022-08-25T01:46:46.444Z,3.87
2022-08-25T01:49:49.500Z,3.70
2022-08-25T01:52:57.275Z,3.23
2022-08-25T01:56:03.831Z,3.30
2022-08-25T01:59:07.183Z,3.43
2022-08-25T02:02:10.608Z,3.13
2022-08-25T02:05:18.437Z,3.77
2022-08-25T02:08:27.623Z,3.63
2022-08-25T02:11:30.698Z,3.47
2022-08-25T02:14:35.633Z,3.77
2022-08-25T02:17:38.644Z,3.53
2022-08-25T02:20:41.658Z,3.60
2022-08-25T02:23:46.015Z,3.80
2022-08-25T02:26:49.265Z,3.30
2022-08-25T02:29:52.574Z,3.33
2022-08-25T02:32:55.583Z,3.27
2022-08-25T02:35:59.620Z,3.63
2022-08-25T02:39:05.239Z,3.53
2022-08-25T02:42:08.588Z,3.73
2022-08-25T02:45:11.843Z,3.67
2022-08-25T02:48:14.879Z,3.70
2022-08-25T02:51:17.916Z,3.40
2022-08-25T02:54:23.208Z,3.77
2022-08-25T02:57:26.243Z,3.80
2022-08-25T03:00:29.226Z,4.00
2022-08-25T03:03:34.310Z,3.70
2022-08-25T03:06:40.870Z,3.43
2022-08-25T03:09:45.838Z,3.80
2022-08-25T03:12:49.112Z,4.20
2022-08-25T03:15:52.227Z,3.70
2022-08-25T03:18:55.291Z,4.10
2022-08-25T03:21:59.691Z,3.80
2022-08-25T03:25:23.484Z,3.40
2022-08-25T03:28:29.861Z,3.80
2022-08-25T03:31:33.998Z,3.63
2022-08-25T03:34:37.034Z,3.63
2022-08-25T03:37:40.668Z,3.30
2022-08-25T03:40:45.001Z,3.37
2022-08-25T03:43:48.991Z,3.97
2022-08-25T03:46:53.180Z,3.70
2022-08-25T03:49:56.269Z,3.43
2022-08-25T03:52:59.297Z,3.97
2022-08-25T03:56:04.358Z,3.57
2022-08-25T03:59:09.199Z,4.10
2022-08-25T04:02:12.272Z,4.30
2022-08-25T04:05:15.865Z,4.20
2022-08-25T04:08:19.145Z,3.83
2022-08-25T04:11:24.467Z,4.00
2022-08-25T04:14:27.519Z,4.07
2022-08-25T04:17:30.701Z,3.67
2022-08-25T04:20:33.692Z,3.83
2022-08-25T04:23:36.748Z,4.20
2022-08-25T04:26:43.237Z,4.43
2022-08-25T04:29:46.278Z,4.17
2022-08-25T04:32:49.300Z,4.03
2022-08-25T04:35:52.386Z,4.40
2022-08-25T04:38:55.458Z,4.00
2022-08-25T04:42:00.684Z,3.43
2022-08-25T04:45:05.722Z,3.93
2022-08-25T04:48:09.957Z,3.80
2022-08-25T04:51:14.926Z,4.40
2022-08-25T04:54:21.497Z,4.77
2022-08-25T04:57:25.841Z,4.47
2022-08-25T05:00:28.823Z,4.37
2022-08-25T05:03:32.167Z,4.63
2022-08-25T05:06:35.844Z,4.67
2022-08-25T05:09:38.837Z,4.30
2022-08-25T05:12:43.182Z,3.97
2022-08-25T05:15:53.951Z,3.83
2022-08-25T05:18:57.759Z,5.57
2022-08-25T05:22:00.787Z,5.07
2022-08-25T05:25:03.809Z,5.80
2022-08-25T05:28:08.160Z,5.07
2022-08-25T05:31:13.449Z,5.87
2022-08-25T05:34:17.461Z,5.40
2022-08-25T05:37:20.523Z,5.43
2022-08-25T05:40:23.638Z,5.87
2022-08-25T05:43:28.732Z,5.17
2022-08-25T05:46:31.890Z,5.17
2022-08-25T05:49:35.074Z,7.07
2022-08-25T05:52:38.214Z,7.80
2022-08-25T05:55:45.452Z,8.07
2022-08-25T05:58:50.415Z,8.87
2022-08-25T06:02:11.306Z,10.30
2022-08-25T06:05:17.417Z,9.87
2022-08-25T06:08:20.566Z,10.03
2022-08-25T06:11:23.784Z,11.13
2022-08-25T06:14:28.251Z,10.23
2022-08-25T06:17:31.307Z,10.53
2022-08-25T06:20:34.347Z,10.57
2022-08-25T06:23:38.655Z,9.40
2022-08-25T06:26:41.703Z,9.67
2022-08-25T06:29:46.316Z,9.77
2022-08-25T06:32:50.169Z,8.97
2022-08-25T06:35:55.797Z,11.23
2022-08-25T06:38:58.854Z,9.20
2022-08-25T06:42:01.902Z,10.00
2022-08-25T06:45:07.750Z,10.80
2022-08-25T06:48:10.855Z,10.97
2022-08-25T06:51:15.759Z,9.90
2022-08-25T06:54:18.790Z,10.43
2022-08-25T06:57:21.923Z,10.90
2022-08-25T07:00:30.686Z,10.87
2022-08-25T07:03:34.675Z,9.47
2022-08-25T07:06:37.858Z,10.50
2022-08-25T07:09:40.968Z,10.53
2022-08-25T07:12:44.077Z,9.53
2022-08-25T07:15:48.539Z,9.80
2022-08-25T07:18:51.765Z,9.80
2022-08-25T07:21:55.096Z,10.87
2022-08-25T07:24:58.090Z,9.20
2022-08-25T07:28:01.259Z,10.03
2022-08-25T07:31:07.130Z,10.63
2022-08-25T07:34:30.668Z,10.23
2022-08-25T07:37:48.076Z,9.50
2022-08-25T07:40:54.781Z,9.43
2022-08-25T07:44:00.148Z,9.90
2022-08-25T07:47:04.933Z,10.50
2022-08-25T07:50:10.515Z,10.20
2022-08-25T07:53:15.170Z,10.30
2022-08-25T07:56:18.789Z,10.80
2022-08-25T07:59:21.890Z,9.27
2022-08-25T08:02:26.780Z,10.43
2022-08-25T08:05:30.350Z,9.30
2022-08-25T08:08:33.403Z,8.87
2022-08-25T08:11:45.520Z,8.43
2022-08-25T08:14:57.100Z,9.50
2022-08-25T08:18:02.017Z,8.10
2022-08-25T08:21:06.311Z,9.47
2022-08-25T08:24:19.771Z,8.00
2022-08-25T08:27:32.923Z,8.70
2022-08-25T08:30:36.708Z,7.90
2022-08-25T08:33:41.368Z,8.40
2022-08-25T08:36:45.350Z,8.33
2022-08-25T08:39:48.586Z,8.00
2022-08-25T08:43:02.425Z,7.97
2022-08-25T08:46:05.858Z,8.73
2022-08-25T08:49:26.805Z,8.20
2022-08-25T08:52:40.174Z,8.90
2022-08-25T08:55:51.874Z,10.07
2022-08-25T08:59:00.582Z,8.03
2022-08-25T09:02:15.712Z,6.87
2022-08-25T09:05:54.198Z,9.50
2022-08-25T09:09:00.109Z,8.57
2022-08-25T09:12:13.257Z,8.13
2022-08-25T09:15:48.023Z,7.77
2022-08-25T09:18:59.462Z,9.67
2022-08-25T09:22:35.332Z,9.23
2022-08-25T09:25:53.003Z,8.23
2022-08-25T09:29:03.587Z,8.53
2022-08-25T09:32:10.273Z,9.27
2022-08-25T09:35:21.025Z,9.10
2022-08-25T09:38:26.998Z,9.20
2022-08-25T09:41:43.105Z,8.30
2022-08-25T09:44:48.446Z,9.30
2022-08-25T09:47:51.426Z,9.40
2022-08-25T09:51:01.087Z,9.33
2022-08-25T09:54:17.840Z,8.97
2022-08-25T09:57:31.215Z,9.33
2022-08-25T10:00:35.661Z,8.93
2022-08-25T10:03:38.929Z,9.40
2022-08-25T10:06:46.884Z,8.43
2022-08-25T10:09:55.771Z,8.00
2022-08-25T10:13:00.982Z,8.47
2022-08-25T10:16:24.159Z,7.90
2022-08-25T10:19:30.236Z,6.53
2022-08-25T10:22:34.332Z,6.63
2022-08-25T10:25:43.722Z,6.80
2022-08-25T10:29:11.845Z,5.60
2022-08-25T10:32:19.667Z,5.03
2022-08-25T10:35:29.654Z,5.10
2022-08-25T10:38:43.336Z,4.20
2022-08-25T10:41:58.844Z,3.97
2022-08-25T10:45:30.374Z,4.20
2022-08-25T10:48:49.880Z,3.70
2022-08-25T10:52:02.338Z,3.20
2022-08-25T10:55:18.289Z,3.57
2022-08-25T10:58:30.600Z,3.07
2022-08-25T11:01:48.794Z,3.87
2022-08-25T11:05:01.951Z,3.73
2022-08-25T11:08:11.603Z,3.87
2022-08-25T11:11:26.937Z,3.90
2022-08-25T11:14:36.264Z,3.60
2022-08-25T11:17:47.099Z,3.80
2022-08-25T11:21:00.729Z,3.40
2022-08-25T11:24:15.719Z,3.53
2022-08-25T11:27:24.370Z,3.50
2022-08-25T11:30:29.786Z,3.07
2022-08-25T11:33:34.111Z,3.53
2022-08-25T11:36:40.531Z,3.70
2022-08-25T11:40:16.012Z,3.43
2022-08-25T11:43:40.449Z,3.20
2022-08-25T11:47:01.595Z,3.03
2022-08-25T11:50:07.259Z,3.10
2022-08-25T11:53:26.612Z,2.90
2022-08-25T11:56:34.875Z,3.40
2022-08-25T12:00:04.489Z,3.30
2022-08-25T12:03:50.978Z,2.87
2022-08-25T12:07:33.568Z,3.17
2022-08-25T12:10:59.322Z,3.27
2022-08-25T12:14:16.062Z,3.27
2022-08-25T12:17:24.118Z,2.97
2022-08-25T12:21:01.323Z,2.90
2022-08-25T12:24:15.629Z,2.87
2022-08-25T12:27:26.988Z,2.50
2022-08-25T12:30:40.934Z,2.70
2022-08-25T12:33:56.741Z,3.20
2022-08-25T12:37:06.232Z,3.30
2022-08-25T12:40:25.309Z,3.20
2022-08-25T12:43:33.443Z,2.70
2022-08-25T12:46:44.610Z,2.70
2022-08-25T12:49:48.386Z,3.03
2022-08-25T12:52:53.599Z,2.77
2022-08-25T12:56:04.556Z,3.03
2022-08-25T12:59:15.424Z,2.77
2022-08-25T13:02:51.981Z,2.73
2022-08-25T13:06:39.336Z,3.40
2022-08-25T13:10:12.232Z,3.00
2022-08-25T13:13:32.239Z,2.45
2022-08-25T13:16:35.476Z,2.75
2022-08-25T13:19:39.204Z,2.83
2022-08-25T13:22:44.873Z,2.47
2022-08-25T13:25:50.344Z,2.50
2022-08-25T13:28:58.995Z,2.95
2022-08-25T13:32:09.080Z,2.50
2022-08-25T13:35:17.548Z,2.30
2022-08-25T13:38:20.916Z,2.90
2022-08-25T13:41:28.749Z,2.40
2022-08-25T13:44:39.009Z,2.70
2022-08-25T13:47:45.730Z,2.70
2022-08-25T13:50:51.795Z,2.88
2022-08-25T13:53:58.361Z,2.67
2022-08-25T13:57:18.423Z,2.90
2022-08-25T14:00:32.660Z,3.20
2022-08-25T14:03:37.827Z,2.63
2022-08-25T14:06:41.263Z,3.33
2022-08-25T14:09:50.049Z,3.27
2022-08-25T14:13:09.734Z,2.90
2022-08-25T14:16:20.037Z,3.00
2022-08-25T14:19:25.071Z,2.63
2022-08-25T14:22:28.505Z,3.07
2022-08-25T14:25:32.456Z,3.10
2022-08-25T14:28:35.800Z,2.80
2022-08-25T14:31:43.513Z,2.70
2022-08-25T14:34:47.202Z,2.77
2022-08-25T14:37:50.280Z,3.27
2022-08-25T14:40:54.105Z,2.90
2022-08-25T14:43:57.155Z,3.13
2022-08-25T14:47:02.654Z,2.87
2022-08-25T14:50:08.347Z,3.00
2022-08-25T14:53:12.447Z,3.07
2022-08-25T14:56:15.631Z,3.10
2022-08-25T14:59:18.772Z,3.00
2022-08-25T15:02:29.606Z,3.30
2022-08-25T15:05:33.642Z,3.33
2022-08-25T15:08:54.439Z,2.83
2022-08-25T15:11:58.816Z,2.87
2022-08-25T15:15:01.871Z,2.97
2022-08-25T15:18:06.642Z,3.30
2022-08-25T15:21:09.795Z,3.60
2022-08-25T15:24:17.494Z,3.20
2022-08-25T15:27:22.224Z,3.10
2022-08-25T15:30:30.997Z,3.37
2022-08-25T15:33:35.722Z,3.20
2022-08-25T15:36:39.262Z,3.17
2022-08-25T15:39:44.556Z,2.90
2022-08-25T15:42:47.637Z,3.00
2022-08-25T15:45:51.514Z,3.00
2022-08-25T15:48:57.038Z,3.17
2022-08-25T15:52:00.271Z,3.27
2022-08-25T15:55:03.713Z,2.90
2022-08-25T15:58:06.723Z,3.47
2022-08-25T16:01:14.513Z,3.47
2022-08-25T16:04:19.204Z,3.50
2022-08-25T16:07:22.602Z,3.30
2022-08-25T16:10:26.621Z,3.30
2022-08-25T16:13:29.738Z,3.23
2022-08-25T16:16:34.252Z,3.00
2022-08-25T16:19:39.275Z,3.60
2022-08-25T16:22:42.882Z,3.50
2022-08-25T16:25:48.307Z,3.20
2022-08-25T16:28:51.894Z,3.07
2022-08-25T16:31:55.350Z,3.13
2022-08-25T16:35:01.214Z,3.20
2022-08-25T16:38:04.600Z,3.40
2022-08-25T16:41:09.006Z,3.40
2022-08-25T16:44:12.273Z,3.43
2022-08-25T16:47:17.682Z,3.13
2022-08-25T16:50:24.723Z,3.40
2022-08-25T16:53:53.567Z,3.63
2022-08-25T16:56:57.435Z,3.70
2022-08-25T17:00:00.608Z,3.13
2022-08-25T17:03:05.734Z,3.77
2022-08-25T17:06:10.378Z,2.97
2022-08-25T17:09:18.254Z,3.63
2022-08-25T17:12:26.247Z,3.10
2022-08-25T17:15:29.408Z,3.80
2022-08-25T17:18:33.565Z,3.80
2022-08-25T17:21:40.528Z,3.13
2022-08-25T17:24:53.370Z,3.33
2022-08-25T17:28:04.627Z,3.90
2022-08-25T17:31:09.091Z,3.63
2022-08-25T17:34:16.244Z,3.53
2022-08-25T17:37:21.213Z,3.70
2022-08-25T17:40:24.967Z,3.57
2022-08-25T17:43:31.195Z,3.47
2022-08-25T17:46:34.481Z,3.37
2022-08-25T17:49:37.672Z,3.20
2022-08-25T17:52:42.017Z,4.03
2022-08-25T17:55:46.192Z,3.90
2022-08-25T17:58:50.656Z,3.30
2022-08-25T18:01:55.540Z,3.70
2022-08-25T18:04:58.792Z,3.77
2022-08-25T18:08:03.941Z,3.40
2022-08-25T18:11:14.386Z,4.43
2022-08-25T18:14:20.366Z,3.70
2022-08-25T18:17:25.188Z,3.70
2022-08-25T18:20:29.435Z,3.77
2022-08-25T18:23:33.789Z,3.40
2022-08-25T18:26:36.945Z,3.70
2022-08-25T18:29:40.633Z,4.10
2022-08-25T18:32:43.720Z,3.33
2022-08-25T18:35:47.046Z,3.73
2022-08-25T18:39:10.265Z,4.03
2022-08-25T18:42:13.279Z,4.03
2022-08-25T18:45:16.412Z,3.83
2022-08-25T18:48:23.563Z,3.43
2022-08-25T18:51:33.128Z,3.73
2022-08-25T18:54:39.078Z,3.67
2022-08-25T18:57:43.499Z,3.37
2022-08-25T19:00:46.733Z,4.00
2022-08-25T19:03:50.275Z,4.20
2022-08-25T19:06:53.332Z,3.47
2022-08-25T19:09:57.677Z,3.70
2022-08-25T19:13:07.951Z,3.50
2022-08-25T19:16:13.939Z,3.60
2022-08-25T19:19:21.891Z,3.90
2022-08-25T19:22:40.807Z,3.63
2022-08-25T19:25:46.772Z,4.17
2022-08-25T19:28:51.017Z,3.73
2022-08-25T19:31:54.459Z,3.23
2022-08-25T19:34:57.855Z,3.90
2022-08-25T19:38:02.658Z,3.27
2022-08-25T19:41:14.590Z,3.77
2022-08-25T19:44:18.550Z,3.53
2022-08-25T19:47:21.607Z,3.50
2022-08-25T19:50:24.875Z,3.40
2022-08-25T19:53:27.964Z,3.30
2022-08-25T19:56:35.083Z,3.33
2022-08-25T19:59:43.018Z,3.83
2022-08-25T20:02:47.202Z,3.60
2022-08-25T20:05:51.844Z,3.90
2022-08-25T20:09:00.299Z,4.00
2022-08-25T20:12:06.516Z,4.17
2022-08-25T20:15:10.571Z,3.87
2022-08-25T20:18:13.625Z,3.93
2022-08-25T20:21:16.714Z,3.77
2022-08-25T20:24:37.242Z,3.97
2022-08-25T20:27:45.876Z,3.90
2022-08-25T20:30:48.967Z,3.77
2022-08-25T20:33:53.561Z,4.17
2022-08-25T20:36:57.310Z,3.80
2022-08-25T20:40:00.652Z,3.90
2022-08-25T20:43:05.171Z,3.93
2022-08-25T20:46:13.686Z,4.57
2022-08-25T20:49:16.768Z,3.90
2022-08-25T20:52:21.801Z,4.20
2022-08-25T20:55:24.921Z,3.80
2022-08-25T20:58:30.985Z,3.60
2022-08-25T21:01:42.792Z,4.50
2022-08-25T21:04:49.905Z,4.50
2022-08-25T21:07:53.427Z,4.13
2022-08-25T21:10:56.458Z,3.80
2022-08-25T21:14:01.658Z,4.30
2022-08-25T21:17:09.659Z,4.40
2022-08-25T21:20:16.395Z,3.87
2022-08-25T21:23:19.442Z,4.47
2022-08-25T21:26:24.401Z,3.93
2022-08-25T21:29:32.580Z,4.20
2022-08-25T21:32:35.825Z,4.23
2022-08-25T21:35:41.517Z,4.23
2022-08-25T21:38:46.349Z,4.60
2022-08-25T21:41:49.419Z,4.33
2022-08-25T21:44:54.051Z,4.13
2022-08-25T21:47:57.072Z,4.43
2022-08-25T21:51:07.257Z,4.43
2022-08-25T21:54:14.237Z,4.77
2022-08-25T21:57:18.046Z,4.47
2022-08-25T22:00:24.046Z,4.70
2022-08-25T22:03:27.055Z,4.60
2022-08-25T22:06:31.201Z,4.63
2022-08-25T22:09:35.379Z,4.40
2022-08-25T22:12:38.680Z,4.37
2022-08-25T22:15:43.538Z,4.43
2022-08-25T22:18:47.620Z,4.87
2022-08-25T22:21:51.477Z,4.73
2022-08-25T22:24:55.851Z,5.50
2022-08-25T22:27:58.923Z,4.97
2022-08-25T22:31:06.724Z,5.13
2022-08-25T22:34:11.521Z,4.87
2022-08-25T22:37:17.664Z,4.60
2022-08-25T22:40:20.885Z,5.40
2022-08-25T22:43:24.026Z,4.70
2022-08-25T22:46:31.062Z,4.97
2022-08-25T22:49:35.366Z,5.50
2022-08-25T22:52:39.076Z,5.27
2022-08-25T22:55:45.554Z,5.30
2022-08-25T22:58:51.702Z,4.87
2022-08-25T23:01:57.631Z,4.80
2022-08-25T23:05:01.587Z,5.43
2022-08-25T23:08:04.906Z,5.20
2022-08-25T23:11:10.853Z,5.07
2022-08-25T23:14:14.009Z,4.30
2022-08-25T23:17:18.415Z,5.20
2022-08-25T23:20:45.164Z,4.60
2022-08-25T23:23:49.177Z,5.53
2022-08-25T23:26:52.239Z,5.23
2022-08-25T23:29:55.570Z,5.30
2022-08-25T23:33:01.306Z,4.90
2022-08-25T23:36:07.972Z,5.13
2022-08-25T23:39:11.167Z,5.07
2022-08-25T23:42:14.212Z,5.47
2022-08-25T23:45:17.343Z,4.80
2022-08-25T23:48:22.007Z,5.03
2022-08-25T23:51:27.059Z,4.80
2022-08-25T23:54:31.700Z,5.10
2022-08-25T23:57:34.829Z,4.80
